createdAt,value
2018-03-06T00:00:35.501Z,120.60
2018-03-06T00:03:01.709Z,131.50
2018-03-06T00:05:27.953Z,148.40
2018-03-06T00:07:54.223Z,132.47
2018-03-06T00:10:21.226Z,129.70
2018-03-06T00:12:47.469Z,117.13
2018-03-06T00:15:13.696Z,139.60
2018-03-06T00:17:39.908Z,123.87
2018-03-06T00:20:06.156Z,131.20
2018-03-06T00:22:32.360Z,137.90
2018-03-06T00:24:58.618Z,121.43
2018-03-06T00:27:24.823Z,138.70
2018-03-06T00:29:51.064Z,142.70
2018-03-06T00:32:17.268Z,148.53
2018-03-06T00:34:43.504Z,145.90
2018-03-06T00:37:10.471Z,139.43
2018-03-06T00:39:36.720Z,159.40
2018-03-06T00:42:04.429Z,130.87
2018-03-06T00:44:31.392Z,150.53
2018-03-06T00:46:57.612Z,148.43
2018-03-06T00:49:23.863Z,174.80
2018-03-06T00:51:50.084Z,179.17
2018-03-06T00:54:16.347Z,153.90
2018-03-06T00:56:42.568Z,150.50
2018-03-06T00:59:08.883Z,151.77
2018-03-06T01:01:35.096Z,155.20
2018-03-06T01:04:01.334Z,167.20
2018-03-06T01:06:27.553Z,156.17
2018-03-06T01:08:53.796Z,180.03
2018-03-06T01:11:20.032Z,165.37
2018-03-06T01:13:46.280Z,142.33
2018-03-06T01:16:12.497Z,166.53
2018-03-06T01:18:38.734Z,141.27
2018-03-06T01:21:04.952Z,164.03
2018-03-06T01:23:31.192Z,160.33
2018-03-06T01:25:57.392Z,161.07
2018-03-06T01:28:23.600Z,149.10
2018-03-06T01:30:50.581Z,155.40
2018-03-06T01:33:16.796Z,151.10
2018-03-06T01:35:43.040Z,164.07
2018-03-06T01:38:09.255Z,152.43
2018-03-06T01:40:35.500Z,152.80
2018-03-06T01:43:01.721Z,151.83
2018-03-06T01:45:27.968Z,185.67
2018-03-06T01:47:54.176Z,145.53
2018-03-06T01:50:27.375Z,181.47
2018-03-06T01:52:53.592Z,158.43
2018-03-06T01:55:26.905Z,162.83
2018-03-06T01:57:53.105Z,151.60
2018-03-06T02:00:19.348Z,169.63
2018-03-06T02:02:45.567Z,153.13
2018-03-06T02:05:11.800Z,161.53
2018-03-06T02:07:38.018Z,137.80
2018-03-06T02:10:04.308Z,146.63
2018-03-06T02:12:31.467Z,164.30
2018-03-06T02:14:58.208Z,175.63
2018-03-06T02:17:25.052Z,145.87
2018-03-06T02:19:51.692Z,141.20
2018-03-06T02:22:19.353Z,160.30
2018-03-06T02:24:47.172Z,145.83
2018-03-06T02:27:13.388Z,157.87
2018-03-06T02:29:39.633Z,160.00
2018-03-06T02:32:05.843Z,174.43
2018-03-06T02:34:32.064Z,188.57
2018-03-06T02:36:59.056Z,177.17
2018-03-06T02:39:25.260Z,175.90
2018-03-06T02:41:51.505Z,159.67
2018-03-06T02:44:17.717Z,123.10
2018-03-06T02:46:43.955Z,148.43
2018-03-06T02:49:10.169Z,185.07
2018-03-06T02:51:36.399Z,161.90
2018-03-06T02:54:02.618Z,181.20
2018-03-06T02:56:28.868Z,168.90
2018-03-06T02:58:55.072Z,173.77
2018-03-06T03:01:22.044Z,143.20
2018-03-06T03:03:48.261Z,136.30
2018-03-06T03:06:14.857Z,165.73
2018-03-06T03:08:42.188Z,177.13
2018-03-06T03:11:08.432Z,171.83
2018-03-06T03:13:34.665Z,178.97
2018-03-06T03:16:00.993Z,144.93
2018-03-06T03:18:28.016Z,142.27
2018-03-06T03:20:54.336Z,152.90
2018-03-06T03:23:20.600Z,142.50
2018-03-06T03:25:46.816Z,170.93
2018-03-06T03:28:13.060Z,168.73
2018-03-06T03:30:39.275Z,149.63
2018-03-06T03:33:05.545Z,150.00
2018-03-06T03:35:32.497Z,161.93
2018-03-06T03:37:59.459Z,137.97
2018-03-06T03:40:25.680Z,150.73
2018-03-06T03:42:51.920Z,148.70
2018-03-06T03:45:18.136Z,150.50
2018-03-06T03:47:44.446Z,145.87
2018-03-06T03:50:10.645Z,150.83
2018-03-06T03:52:36.852Z,118.87
2018-03-06T03:55:03.166Z,100.33
2018-03-06T03:57:29.408Z,119.63
2018-03-06T03:59:55.612Z,139.97
2018-03-06T04:02:22.561Z,101.53
2018-03-06T04:04:48.820Z,120.27
2018-03-06T04:07:15.053Z,134.10
2018-03-06T04:09:41.304Z,85.53
2018-03-06T04:12:07.554Z,140.10
2018-03-06T04:14:33.792Z,177.80
2018-03-06T04:17:00.748Z,168.13
2018-03-06T04:19:27.000Z,164.30
2018-03-06T04:21:53.236Z,185.17
2018-03-06T04:24:19.469Z,149.67
2018-03-06T04:26:45.684Z,151.90
2018-03-06T04:29:11.916Z,168.90
2018-03-06T04:31:38.120Z,149.20
2018-03-06T04:34:05.485Z,149.93
2018-03-06T04:36:31.705Z,149.13
2018-03-06T04:38:58.707Z,122.63
2018-03-06T04:41:24.929Z,137.47
2018-03-06T04:43:51.152Z,149.83
2018-03-06T04:46:17.414Z,137.63
2018-03-06T04:48:43.607Z,154.70
2018-03-06T04:51:09.913Z,119.03
2018-03-06T04:53:36.132Z,154.30
2018-03-06T04:56:03.105Z,156.83
2018-03-06T04:58:29.316Z,174.20
2018-03-06T05:00:56.284Z,147.57
2018-03-06T05:03:22.505Z,163.53
2018-03-06T05:05:48.758Z,129.40
2018-03-06T05:08:14.972Z,168.63
2018-03-06T05:10:41.249Z,176.27
2018-03-06T05:13:07.460Z,156.27
2018-03-06T05:15:33.736Z,174.10
2018-03-06T05:17:59.976Z,163.83
2018-03-06T05:20:26.196Z,187.40
2018-03-06T05:22:52.440Z,200.07
2018-03-06T05:25:18.660Z,168.87
2018-03-06T05:27:44.907Z,174.40
2018-03-06T05:30:11.129Z,140.10
2018-03-06T05:32:37.368Z,73.87
2018-03-06T05:35:03.588Z,143.90
2018-03-06T05:37:29.829Z,103.60
2018-03-06T05:39:56.028Z,100.57
2018-03-06T05:42:23.008Z,120.40
2018-03-06T05:44:49.233Z,178.97
2018-03-06T05:47:15.493Z,155.93
2018-03-06T05:49:42.448Z,145.50
2018-03-06T05:52:08.698Z,133.80
2018-03-06T05:54:35.660Z,144.93
2018-03-06T05:57:02.796Z,123.03
2018-03-06T05:59:29.041Z,166.27
2018-03-06T06:01:55.275Z,133.37
2018-03-06T06:04:21.526Z,134.97
2018-03-06T06:06:48.472Z,147.60
2018-03-06T06:09:14.724Z,121.47
2018-03-06T06:11:41.004Z,159.60
2018-03-06T06:14:07.232Z,152.70
2018-03-06T06:16:34.260Z,154.23
2018-03-06T06:19:01.243Z,164.93
2018-03-06T06:21:27.449Z,132.87
2018-03-06T06:23:53.663Z,143.30
2018-03-06T06:26:19.855Z,130.00
2018-03-06T06:28:46.072Z,140.77
2018-03-06T06:31:12.260Z,181.83
2018-03-06T06:33:38.475Z,145.60
2018-03-06T06:36:06.152Z,165.77
2018-03-06T06:38:32.372Z,151.37
2018-03-06T06:40:59.308Z,134.03
2018-03-06T06:43:25.519Z,132.53
2018-03-06T06:45:51.776Z,155.20
2018-03-06T06:48:18.760Z,146.30
2018-03-06T06:50:44.949Z,147.90
2018-03-06T06:53:11.320Z,117.77
2018-03-06T06:55:37.512Z,140.73
2018-03-06T06:58:03.702Z,144.53
2018-03-06T07:00:29.928Z,136.50
2018-03-06T07:02:56.121Z,133.23
2018-03-06T07:05:23.075Z,139.77
2018-03-06T07:07:50.006Z,122.03
2018-03-06T07:10:17.006Z,132.20
2018-03-06T07:12:43.220Z,116.37
2018-03-06T07:15:09.440Z,143.90
2018-03-06T07:17:35.636Z,137.77
2018-03-06T07:20:02.608Z,127.77
2018-03-06T07:22:28.806Z,105.13
2018-03-06T07:24:55.030Z,131.77
2018-03-06T07:27:21.221Z,154.60
2018-03-06T07:29:47.444Z,143.40
2018-03-06T07:32:13.632Z,138.10
2018-03-06T07:34:40.588Z,119.63
2018-03-06T07:37:07.527Z,149.40
2018-03-06T07:39:34.489Z,126.20
2018-03-06T07:42:00.679Z,136.57
2018-03-06T07:44:26.897Z,134.17
2018-03-06T07:46:53.092Z,126.77
2018-03-06T07:49:19.289Z,131.43
2018-03-06T07:51:46.255Z,129.50
2018-03-06T07:54:12.457Z,116.07
2018-03-06T07:56:39.418Z,111.00
2018-03-06T07:59:06.344Z,118.90
2018-03-06T08:01:32.564Z,141.93
2018-03-06T08:03:58.757Z,128.17
2018-03-06T08:06:25.024Z,121.37
2018-03-06T08:08:51.215Z,126.33
2018-03-06T08:11:17.395Z,127.87
2018-03-06T08:13:44.384Z,136.27
2018-03-06T08:16:10.575Z,140.77
2018-03-06T08:18:37.547Z,141.40
2018-03-06T08:21:03.734Z,136.27
2018-03-06T08:23:29.949Z,138.17
2018-03-06T08:25:56.140Z,135.17
2018-03-06T08:28:22.364Z,141.30
2018-03-06T08:30:48.556Z,115.53
2018-03-06T08:33:15.515Z,130.13
2018-03-06T08:35:42.444Z,135.40
2018-03-06T08:38:09.421Z,128.97
2018-03-06T08:40:35.611Z,129.17
2018-03-06T08:43:01.925Z,138.53
2018-03-06T08:45:28.112Z,128.50
2018-03-06T08:47:54.333Z,125.50
2018-03-06T08:50:20.528Z,115.77
2018-03-06T08:52:46.941Z,122.20
2018-03-06T08:55:13.153Z,128.23
2018-03-06T08:57:39.342Z,143.93
2018-03-06T09:00:06.296Z,131.10
2018-03-06T09:02:32.487Z,125.83
2018-03-06T09:04:58.712Z,129.47
2018-03-06T09:07:24.902Z,117.63
2018-03-06T09:09:51.119Z,118.03
2018-03-06T09:12:17.371Z,123.37
2018-03-06T09:14:43.664Z,121.97
2018-03-06T09:17:10.657Z,132.40
2018-03-06T09:19:36.880Z,128.37
2018-03-06T09:22:03.078Z,128.73
2018-03-06T09:24:29.364Z,133.63
2018-03-06T09:26:55.530Z,118.80
2018-03-06T09:29:22.456Z,118.37
2018-03-06T09:31:48.675Z,118.77
2018-03-06T09:34:14.905Z,130.37
2018-03-06T09:36:41.096Z,113.33
2018-03-06T09:39:07.321Z,132.67
2018-03-06T09:41:33.509Z,125.17
2018-03-06T09:44:00.472Z,138.73
2018-03-06T09:46:26.665Z,138.47
2018-03-06T09:48:53.091Z,125.43
2018-03-06T09:51:19.285Z,127.20
2018-03-06T09:53:45.479Z,130.33
2018-03-06T09:56:11.708Z,132.03
2018-03-06T09:58:38.701Z,131.60
2018-03-06T10:01:04.884Z,134.73
2018-03-06T10:03:31.871Z,129.63
2018-03-06T10:05:58.101Z,137.33
2018-03-06T10:08:24.288Z,130.20
2018-03-06T10:10:51.320Z,133.47
2018-03-06T10:13:17.540Z,103.53
2018-03-06T10:15:43.771Z,124.17
2018-03-06T10:18:10.037Z,125.33
2018-03-06T10:20:36.260Z,124.90
2018-03-06T10:23:02.452Z,134.70
2018-03-06T10:25:28.689Z,113.27
2018-03-06T10:27:54.893Z,124.73
2018-03-06T10:30:21.113Z,122.60
2018-03-06T10:32:47.308Z,131.67
2018-03-06T10:35:13.540Z,118.40
2018-03-06T10:37:39.728Z,126.67
2018-03-06T10:40:05.956Z,135.53
2018-03-06T10:42:32.196Z,119.43
2018-03-06T10:44:58.808Z,125.40
2018-03-06T10:47:25.006Z,125.13
2018-03-06T10:49:51.265Z,127.60
2018-03-06T10:52:17.484Z,120.43
2018-03-06T10:54:43.681Z,115.17
2018-03-06T10:57:09.904Z,123.27
2018-03-06T10:59:36.100Z,121.53
2018-03-06T11:02:03.348Z,129.40
2018-03-06T11:04:29.591Z,123.37
2018-03-06T11:06:55.797Z,132.30
2018-03-06T11:09:21.994Z,127.70
2018-03-06T11:11:48.224Z,114.47
2018-03-06T11:14:14.466Z,116.67
2018-03-06T11:16:40.696Z,119.43
2018-03-06T11:19:06.896Z,125.60
2018-03-06T11:21:33.121Z,115.23
2018-03-06T11:23:59.337Z,110.90
2018-03-06T11:26:26.300Z,125.13
2018-03-06T11:28:52.524Z,124.70
2018-03-06T11:31:18.707Z,117.83
2018-03-06T11:33:44.926Z,114.40
2018-03-06T11:36:11.144Z,116.23
2018-03-06T11:38:37.361Z,118.03
2018-03-06T11:41:03.554Z,129.70
2018-03-06T11:43:30.585Z,148.37
2018-03-06T11:45:56.775Z,129.80
2018-03-06T11:48:22.998Z,118.80
2018-03-06T11:50:49.184Z,121.53
2018-03-06T11:53:16.152Z,121.73
2018-03-06T11:55:42.340Z,126.40
2018-03-06T11:58:09.325Z,116.30
2018-03-06T12:00:35.524Z,130.33
2018-03-06T12:03:01.716Z,118.13
2018-03-06T12:05:27.970Z,112.67
2018-03-06T12:07:54.156Z,130.17
2018-03-06T12:10:20.385Z,124.77
2018-03-06T12:12:46.616Z,132.03
2018-03-06T12:15:12.840Z,136.57
2018-03-06T12:17:39.037Z,128.13
2018-03-06T12:20:06.025Z,117.40
2018-03-06T12:22:32.230Z,128.37
2018-03-06T12:24:58.447Z,133.50
2018-03-06T12:27:25.404Z,158.87
2018-03-06T12:29:51.596Z,153.17
2018-03-06T12:32:19.308Z,118.50
2018-03-06T12:34:45.496Z,121.13
2018-03-06T12:37:11.719Z,127.70
2018-03-06T12:39:37.919Z,135.00
2018-03-06T12:42:04.140Z,116.90
2018-03-06T12:44:30.408Z,122.20
2018-03-06T12:46:56.630Z,112.03
2018-03-06T12:49:22.844Z,105.60
2018-03-06T12:51:49.068Z,108.63
2018-03-06T12:54:15.256Z,105.73
2018-03-06T12:56:41.476Z,107.63
2018-03-06T12:59:08.422Z,106.83
2018-03-06T13:01:34.673Z,108.37
2018-03-06T13:04:00.872Z,118.00
2018-03-06T13:06:27.111Z,115.63
2018-03-06T13:08:54.046Z,126.67
2018-03-06T13:11:21.008Z,104.60
2018-03-06T13:13:47.225Z,114.77
2018-03-06T13:16:14.188Z,72.87
2018-03-06T13:18:40.389Z,108.17
2018-03-06T13:21:07.348Z,111.97
2018-03-06T13:23:34.303Z,126.73
2018-03-06T13:26:00.497Z,97.07
2018-03-06T13:28:26.716Z,102.17
2018-03-06T13:30:53.672Z,105.90
2018-03-06T13:33:19.893Z,103.07
2018-03-06T13:35:47.576Z,85.93
2018-03-06T13:38:14.545Z,92.30
2018-03-06T13:40:40.741Z,95.37
2018-03-06T13:43:06.960Z,94.57
2018-03-06T13:45:33.143Z,92.63
2018-03-06T13:47:59.367Z,102.67
2018-03-06T13:50:25.588Z,85.70
2018-03-06T13:52:51.808Z,82.40
2018-03-06T13:55:18.741Z,84.10
2018-03-06T13:57:45.710Z,89.40
2018-03-06T14:00:11.904Z,93.63
2018-03-06T14:02:38.165Z,87.37
2018-03-06T14:05:05.137Z,87.07
2018-03-06T14:07:31.332Z,92.23
2018-03-06T14:09:57.593Z,89.77
2018-03-06T14:12:23.794Z,89.50
2018-03-06T14:14:50.787Z,95.10
2018-03-06T14:17:16.985Z,92.70
2018-03-06T14:19:43.231Z,96.00
2018-03-06T14:22:16.334Z,96.07
2018-03-06T14:24:42.547Z,95.27
2018-03-06T14:27:08.734Z,84.83
2018-03-06T14:29:35.700Z,95.50
2018-03-06T14:32:01.880Z,105.83
2018-03-06T14:34:28.096Z,97.63
2018-03-06T14:36:54.280Z,85.23
2018-03-06T14:39:21.322Z,92.27
2018-03-06T14:41:48.269Z,92.60
2018-03-06T14:44:14.502Z,114.70
2018-03-06T14:46:41.431Z,93.33
2018-03-06T14:49:07.649Z,100.70
2018-03-06T14:51:33.840Z,104.60
2018-03-06T14:54:00.064Z,105.70
2018-03-06T14:56:26.258Z,102.20
2018-03-06T14:58:53.360Z,100.10
2018-03-06T15:01:19.559Z,93.10
2018-03-06T15:03:45.748Z,98.73
2018-03-06T15:06:11.969Z,99.87
2018-03-06T15:08:38.226Z,110.97
2018-03-06T15:11:05.203Z,89.83
2018-03-06T15:13:31.435Z,108.63
2018-03-06T15:15:57.648Z,101.57
2018-03-06T15:18:23.837Z,98.20
2018-03-06T15:20:50.056Z,90.87
2018-03-06T15:23:16.248Z,109.27
2018-03-06T15:25:42.464Z,103.00
2018-03-06T15:28:08.656Z,107.87
2018-03-06T15:30:35.612Z,114.20
2018-03-06T15:33:02.542Z,116.87
2018-03-06T15:35:28.760Z,118.50
2018-03-06T15:37:54.961Z,105.43
2018-03-06T15:40:21.247Z,109.90
2018-03-06T15:42:48.180Z,104.63
2018-03-06T15:45:15.270Z,99.10
2018-03-06T15:47:41.479Z,93.33
2018-03-06T15:50:07.668Z,103.37
2018-03-06T15:52:33.893Z,96.43
2018-03-06T15:55:00.093Z,87.97
2018-03-06T15:57:26.319Z,112.43
2018-03-06T15:59:52.517Z,91.07
2018-03-06T16:02:19.485Z,87.90
2018-03-06T16:04:52.745Z,96.60
2018-03-06T16:07:19.709Z,107.83
2018-03-06T16:09:46.644Z,92.37
2018-03-06T16:12:13.632Z,106.13
2018-03-06T16:14:39.819Z,106.27
2018-03-06T16:17:06.767Z,116.43
2018-03-06T16:19:33.788Z,97.70
2018-03-06T16:22:01.460Z,93.73
2018-03-06T16:24:27.683Z,96.67
2018-03-06T16:26:53.881Z,109.63
2018-03-06T16:29:20.100Z,127.20
2018-03-06T16:31:46.301Z,102.20
2018-03-06T16:34:13.256Z,102.57
2018-03-06T16:36:39.449Z,90.47
2018-03-06T16:39:05.668Z,106.00
2018-03-06T16:41:31.912Z,114.30
2018-03-06T16:43:58.872Z,120.33
2018-03-06T16:46:25.809Z,105.07
2018-03-06T16:48:52.825Z,118.67
2018-03-06T16:51:18.994Z,103.63
2018-03-06T16:53:45.952Z,103.87
2018-03-06T16:56:12.145Z,126.33
2018-03-06T16:58:38.367Z,114.93
2018-03-06T17:01:04.565Z,106.17
2018-03-06T17:03:30.792Z,127.40
2018-03-06T17:05:56.983Z,117.27
2018-03-06T17:08:23.949Z,129.53
2018-03-06T17:10:50.140Z,155.47
2018-03-06T17:13:16.365Z,129.57
2018-03-06T17:15:42.588Z,140.63
2018-03-06T17:18:08.784Z,136.33
2018-03-06T17:20:35.020Z,117.80
2018-03-06T17:23:01.209Z,131.40
2018-03-06T17:25:28.172Z,151.43
2018-03-06T17:27:54.369Z,145.37
2018-03-06T17:30:21.332Z,138.23
2018-03-06T17:32:47.529Z,128.67
2018-03-06T17:35:13.748Z,138.73
2018-03-06T17:37:39.941Z,131.73
2018-03-06T17:40:06.157Z,124.03
2018-03-06T17:42:32.379Z,116.03
2018-03-06T17:44:58.604Z,111.97
2018-03-06T17:47:25.537Z,123.53
2018-03-06T17:49:52.517Z,129.77
2018-03-06T17:52:18.715Z,118.50
2018-03-06T17:54:45.682Z,109.07
2018-03-06T17:57:11.880Z,114.00
2018-03-06T17:59:38.845Z,112.90
2018-03-06T18:02:05.068Z,110.70
2018-03-06T18:04:31.461Z,127.80
2018-03-06T18:06:57.660Z,129.80
2018-03-06T18:09:23.849Z,111.80
2018-03-06T18:11:50.846Z,109.80
2018-03-06T18:14:17.053Z,114.83
2018-03-06T18:16:43.267Z,109.90
2018-03-06T18:19:10.214Z,113.10
2018-03-06T18:21:36.837Z,116.07
2018-03-06T18:24:03.768Z,120.43
2018-03-06T18:26:29.989Z,127.13
2018-03-06T18:28:56.185Z,117.37
2018-03-06T18:31:22.400Z,137.43
2018-03-06T18:33:48.601Z,145.90
2018-03-06T18:36:15.559Z,121.07
2018-03-06T18:38:42.493Z,137.90
2018-03-06T18:41:09.492Z,116.67
2018-03-06T18:43:35.721Z,129.10
2018-03-06T18:46:01.916Z,117.20
2018-03-06T18:48:28.148Z,125.60
2018-03-06T18:51:06.799Z,142.27
2018-03-06T18:53:33.032Z,129.30
2018-03-06T18:55:59.220Z,124.30
2018-03-06T18:58:25.504Z,145.73
2018-03-06T19:01:04.128Z,130.43
2018-03-06T19:03:43.592Z,114.80
2018-03-06T19:06:22.906Z,128.03
2018-03-06T19:08:49.116Z,131.67
2018-03-06T19:11:15.301Z,122.80
2018-03-06T19:13:41.556Z,123.13
2018-03-06T19:16:07.745Z,113.73
2018-03-06T19:18:34.707Z,134.73
2018-03-06T19:21:01.321Z,151.10
2018-03-06T19:23:27.564Z,149.37
2018-03-06T19:25:54.513Z,140.80
2018-03-06T19:28:21.477Z,135.13
2018-03-06T19:30:47.667Z,113.93
2018-03-06T19:33:14.638Z,125.03
2018-03-06T19:35:41.978Z,117.27
2018-03-06T19:38:08.931Z,132.27
2018-03-06T19:40:35.860Z,104.90
2018-03-06T19:43:02.085Z,119.20
2018-03-06T19:45:28.285Z,117.70
2018-03-06T19:47:54.628Z,109.77
2018-03-06T19:50:20.820Z,124.83
2018-03-06T19:52:47.053Z,122.80
2018-03-06T19:55:13.265Z,121.97
2018-03-06T19:57:39.496Z,113.17
2018-03-06T20:00:05.695Z,121.97
2018-03-06T20:02:32.636Z,120.03
2018-03-06T20:04:58.856Z,115.77
2018-03-06T20:07:25.055Z,110.10
2018-03-06T20:09:51.281Z,120.77
2018-03-06T20:12:17.538Z,116.57
2018-03-06T20:14:50.020Z,116.70
2018-03-06T20:17:16.973Z,122.90
2018-03-06T20:19:43.213Z,118.83
2018-03-06T20:22:09.400Z,109.50
2018-03-06T20:24:41.808Z,118.30
2018-03-06T20:27:08.778Z,100.40
2018-03-06T20:29:35.735Z,105.53
2018-03-06T20:32:08.028Z,97.77
2018-03-06T20:34:34.248Z,107.00
2018-03-06T20:37:00.448Z,115.20
2018-03-06T20:39:33.617Z,169.57
2018-03-06T20:41:59.825Z,188.77
2018-03-06T20:44:26.045Z,163.87
2018-03-06T20:46:58.608Z,142.73
2018-03-06T20:49:24.837Z,127.37
2018-03-06T20:51:51.029Z,135.80
2018-03-06T20:54:24.116Z,121.17
2018-03-06T20:56:50.324Z,114.27
2018-03-06T20:59:16.548Z,116.10
2018-03-06T21:01:42.748Z,126.23
2018-03-06T21:04:08.972Z,129.00
2018-03-06T21:06:35.168Z,130.77
2018-03-06T21:09:02.177Z,119.37
2018-03-06T21:11:28.368Z,124.53
2018-03-06T21:13:54.616Z,121.57
2018-03-06T21:16:21.144Z,102.20
2018-03-06T21:18:47.366Z,112.07
2018-03-06T21:21:13.557Z,105.43
2018-03-06T21:23:40.523Z,117.70
2018-03-06T21:26:06.724Z,96.93
2018-03-06T21:28:32.949Z,95.50
2018-03-06T21:30:59.440Z,81.23
2018-03-06T21:33:25.656Z,87.00
2018-03-06T21:35:51.869Z,81.23
2018-03-06T21:38:18.828Z,78.03
2018-03-06T21:40:45.012Z,70.03
2018-03-06T21:43:11.200Z,92.80
2018-03-06T21:45:37.475Z,76.07
2018-03-06T21:48:03.673Z,73.03
2018-03-06T21:50:29.897Z,80.77
2018-03-06T21:52:56.076Z,68.77
2018-03-06T21:55:23.036Z,73.30
2018-03-06T21:57:49.229Z,82.10
2018-03-06T22:00:15.451Z,78.73
2018-03-06T22:02:41.640Z,68.07
2018-03-06T22:05:07.868Z,78.93
2018-03-06T22:07:34.064Z,73.87
2018-03-06T22:10:01.029Z,78.30
2018-03-06T22:12:27.272Z,77.60
2018-03-06T22:14:53.816Z,93.80
2018-03-06T22:17:20.009Z,82.97
2018-03-06T22:19:46.976Z,74.97
2018-03-06T22:22:13.167Z,86.50
2018-03-06T22:24:39.409Z,75.47
2018-03-06T22:27:06.339Z,77.60
2018-03-06T22:29:32.533Z,81.70
2018-03-06T22:31:58.757Z,85.23
2018-03-06T22:34:24.952Z,81.03
2018-03-06T22:36:51.912Z,82.87
2018-03-06T22:39:18.107Z,84.63
2018-03-06T22:41:44.332Z,79.37
2018-03-06T22:44:11.276Z,80.43
2018-03-06T22:46:37.573Z,81.00
2018-03-06T22:49:03.772Z,90.87
2018-03-06T22:51:29.989Z,71.07
2018-03-06T22:53:56.919Z,89.63
2018-03-06T22:56:23.880Z,98.03
2018-03-06T22:58:50.856Z,83.23
2018-03-06T23:01:17.080Z,91.97
2018-03-06T23:03:43.269Z,80.17
2018-03-06T23:06:10.253Z,89.67
2018-03-06T23:08:36.449Z,83.67
2018-03-06T23:11:03.453Z,79.33
2018-03-06T23:13:29.667Z,72.60
2018-03-06T23:15:55.920Z,78.87
2018-03-06T23:18:22.108Z,75.80
2018-03-06T23:20:48.323Z,78.83
2018-03-06T23:23:15.256Z,79.53
2018-03-06T23:25:42.219Z,79.47
2018-03-06T23:28:08.409Z,80.07
2018-03-06T23:30:34.636Z,103.87
2018-03-06T23:33:00.829Z,104.27
2018-03-06T23:35:27.044Z,108.83
2018-03-06T23:37:53.236Z,99.43
2018-03-06T23:40:19.456Z,114.13
2018-03-06T23:42:45.645Z,103.50
2018-03-06T23:45:11.840Z,96.87
2018-03-06T23:47:38.800Z,90.17
2018-03-06T23:50:04.993Z,119.60
2018-03-06T23:52:31.211Z,115.67
2018-03-06T23:54:57.403Z,98.33
2018-03-06T23:57:23.628Z,99.17
2018-03-06T23:59:49.822Z,90.30
